createdAt,value
2022-09-13T00:02:27.464Z,98309.00
2022-09-13T00:04:58.569Z,98293.00
2022-09-13T00:07:29.405Z,98281.00
2022-09-13T00:10:00.246Z,98297.00
2022-09-13T00:12:31.145Z,98306.00
2022-09-13T00:15:02.988Z,98304.00
2022-09-13T00:17:33.932Z,98307.00
2022-09-13T00:20:05.478Z,98297.00
2022-09-13T00:22:37.340Z,98290.00
2022-09-13T00:25:08.810Z,98285.00
2022-09-13T00:27:39.698Z,98283.00
2022-09-13T00:30:12.622Z,98285.00
2022-09-13T00:32:43.518Z,98285.00
2022-09-13T00:35:14.506Z,98281.00
2022-09-13T00:37:45.395Z,98287.00
2022-09-13T00:40:16.663Z,98287.00
2022-09-13T00:42:47.682Z,98290.00
2022-09-13T00:45:19.243Z,98293.00
2022-09-13T00:47:59.252Z,98285.00
2022-09-13T00:50:46.039Z,98301.00
2022-09-13T00:53:25.164Z,98288.00
2022-09-13T00:56:05.722Z,98284.00
2022-09-13T00:59:08.840Z,98275.00
2022-09-13T01:01:53.591Z,98271.00
2022-09-13T01:04:27.901Z,98267.00
2022-09-13T01:07:08.802Z,98267.00
2022-09-13T01:09:44.177Z,98262.00
2022-09-13T01:12:48.520Z,98252.00
2022-09-13T01:15:19.482Z,98251.00
2022-09-13T01:17:54.743Z,98255.00
2022-09-13T01:20:46.305Z,98253.00
2022-09-13T01:23:57.561Z,98254.00
2022-09-13T01:26:43.310Z,98253.00
2022-09-13T01:29:37.119Z,98260.00
2022-09-13T01:32:31.339Z,98257.00
2022-09-13T01:35:05.087Z,98271.00
2022-09-13T01:37:55.055Z,98263.00
2022-09-13T01:41:11.037Z,98261.00
2022-09-13T01:44:12.328Z,98262.00
2022-09-13T01:47:45.569Z,98267.00
2022-09-13T01:50:42.331Z,98270.00
2022-09-13T01:53:37.117Z,98269.00
2022-09-13T01:56:24.619Z,98262.00
2022-09-13T01:59:41.845Z,98286.00
2022-09-13T02:02:21.585Z,98275.00
2022-09-13T02:05:01.540Z,98274.00
2022-09-13T02:07:41.044Z,98274.00
2022-09-13T02:10:34.250Z,98271.00
2022-09-13T02:13:13.434Z,98269.00
2022-09-13T02:15:49.212Z,98282.00
2022-09-13T02:18:36.086Z,98271.00
2022-09-13T02:21:22.699Z,98265.00
2022-09-13T02:24:08.533Z,98273.00
2022-09-13T02:26:42.083Z,98286.00
2022-09-13T02:29:18.231Z,98282.00
2022-09-13T02:32:04.598Z,98283.00
2022-09-13T02:34:43.319Z,98284.00
2022-09-13T02:37:15.021Z,98262.00
2022-09-13T02:39:57.629Z,98263.00
2022-09-13T02:43:19.232Z,98269.00
2022-09-13T02:46:10.097Z,98269.00
2022-09-13T02:49:20.186Z,98278.00
2022-09-13T02:52:43.365Z,98273.00
2022-09-13T02:55:16.950Z,98269.00
2022-09-13T02:58:15.152Z,98272.00
2022-09-13T03:00:47.280Z,98261.00
2022-09-13T03:03:18.218Z,98260.00
2022-09-13T03:05:49.363Z,98268.00
2022-09-13T03:08:22.295Z,98278.00
2022-09-13T03:11:16.003Z,98271.00
2022-09-13T03:14:42.335Z,98262.00
2022-09-13T03:17:25.230Z,98251.00
2022-09-13T03:20:12.644Z,98245.00
2022-09-13T03:23:10.976Z,98239.00
2022-09-13T03:26:07.890Z,98257.00
2022-09-13T03:28:51.070Z,98236.00
2022-09-13T03:31:37.267Z,98234.00
2022-09-13T03:34:17.519Z,98230.00
2022-09-13T03:36:56.399Z,98231.00
2022-09-13T03:39:57.922Z,98236.00
2022-09-13T03:42:50.616Z,98251.00
2022-09-13T03:45:27.500Z,98258.00
2022-09-13T03:47:59.078Z,98269.00
2022-09-13T03:50:31.750Z,98261.00
2022-09-13T03:53:11.603Z,98287.00
2022-09-13T03:55:43.803Z,98251.00
2022-09-13T03:58:19.022Z,98248.00
2022-09-13T04:00:50.150Z,98244.00
2022-09-13T04:03:21.362Z,98235.00
2022-09-13T04:05:52.200Z,98236.00
2022-09-13T04:08:23.149Z,98231.00
2022-09-13T04:10:54.569Z,98243.00
2022-09-13T04:13:25.491Z,98234.00
2022-09-13T04:16:02.456Z,98227.00
2022-09-13T04:18:34.064Z,98228.00
2022-09-13T04:21:05.477Z,98229.00
2022-09-13T04:23:36.518Z,98226.00
2022-09-13T04:26:07.392Z,98223.00
2022-09-13T04:28:38.273Z,98222.00
2022-09-13T04:31:09.206Z,98225.00
2022-09-13T04:33:41.258Z,98242.00
2022-09-13T04:36:12.132Z,98236.00
2022-09-13T04:38:43.139Z,98251.00
2022-09-13T04:41:14.124Z,98253.00
2022-09-13T04:43:50.110Z,98266.00
2022-09-13T04:46:21.123Z,98273.00
2022-09-13T04:48:52.547Z,98262.00
2022-09-13T04:51:23.629Z,98259.00
2022-09-13T04:53:56.008Z,98248.00
2022-09-13T04:56:27.884Z,98260.00
2022-09-13T04:58:58.740Z,98257.00
2022-09-13T05:01:30.031Z,98275.00
2022-09-13T05:04:00.952Z,98269.00
2022-09-13T05:06:31.817Z,98264.00
2022-09-13T05:09:04.055Z,98285.00
2022-09-13T05:11:34.952Z,98274.00
2022-09-13T05:14:06.472Z,98287.00
2022-09-13T05:16:37.381Z,98279.00
2022-09-13T05:19:09.762Z,98273.00
2022-09-13T05:21:40.682Z,98269.00
2022-09-13T05:24:11.940Z,98288.00
2022-09-13T05:26:42.971Z,98284.00
2022-09-13T05:29:13.986Z,98293.00
2022-09-13T05:31:45.052Z,98291.00
2022-09-13T05:34:20.050Z,98292.00
2022-09-13T05:36:54.229Z,98285.00
2022-09-13T05:39:34.041Z,98297.00
2022-09-13T05:42:14.710Z,98312.00
2022-09-13T05:44:46.117Z,98313.00
2022-09-13T05:47:17.117Z,98311.00
2022-09-13T05:50:08.842Z,98298.00
2022-09-13T05:52:38.951Z,98306.00
2022-09-13T05:55:10.197Z,98307.00
2022-09-13T05:57:41.103Z,98298.00
2022-09-13T06:00:13.177Z,98300.00
2022-09-13T06:02:44.178Z,98300.00
2022-09-13T06:05:15.324Z,98288.00
2022-09-13T06:07:46.643Z,98288.00
2022-09-13T06:10:18.123Z,98311.00
2022-09-13T06:12:50.850Z,98293.00
2022-09-13T06:15:21.703Z,98319.00
2022-09-13T06:17:52.579Z,98310.00
2022-09-13T06:20:23.471Z,98310.00
2022-09-13T06:22:54.345Z,98315.00
2022-09-13T06:25:25.379Z,98320.00
2022-09-13T06:27:56.220Z,98318.00
2022-09-13T06:30:27.141Z,98339.00
2022-09-13T06:32:58.121Z,98312.00
2022-09-13T06:35:28.964Z,98306.00
2022-09-13T06:37:59.851Z,98310.00
2022-09-13T06:40:30.824Z,98311.00
2022-09-13T06:43:01.994Z,98309.00
2022-09-13T06:45:32.825Z,98298.00
2022-09-13T06:48:04.159Z,98298.00
2022-09-13T06:50:35.083Z,98298.00
2022-09-13T06:53:06.039Z,98298.00
2022-09-13T06:55:37.050Z,98298.00
2022-09-13T06:58:07.879Z,98302.00
2022-09-13T07:00:38.899Z,98301.00
2022-09-13T07:03:09.778Z,98298.00
2022-09-13T07:05:40.678Z,98285.00
2022-09-13T07:08:11.542Z,98285.00
2022-09-13T07:10:42.413Z,98285.00
2022-09-13T07:13:13.362Z,98282.00
2022-09-13T07:15:44.287Z,98285.00
2022-09-13T07:18:15.137Z,98291.00
2022-09-13T07:20:45.999Z,98286.00
2022-09-13T07:23:16.868Z,98295.00
2022-09-13T07:25:55.996Z,98300.00
2022-09-13T07:28:27.545Z,98295.00
2022-09-13T07:31:36.521Z,98253.00
2022-09-13T07:34:22.675Z,98257.00
2022-09-13T07:36:54.372Z,98263.00
2022-09-13T07:39:25.295Z,98255.00
2022-09-13T07:41:56.164Z,98267.00
2022-09-13T07:44:27.085Z,98256.00
2022-09-13T07:46:57.940Z,98258.00
2022-09-13T07:49:28.825Z,98278.00
2022-09-13T07:51:59.661Z,98275.00
2022-09-13T07:54:30.966Z,98289.00
2022-09-13T07:57:01.837Z,98290.00
2022-09-13T07:59:32.760Z,98287.00
2022-09-13T08:02:03.695Z,98274.00
2022-09-13T08:04:36.409Z,98269.00
2022-09-13T08:07:07.508Z,98262.00
2022-09-13T08:09:38.381Z,98264.00
2022-09-13T08:12:09.236Z,98282.00
2022-09-13T08:14:40.113Z,98255.00
2022-09-13T08:17:10.959Z,98255.00
2022-09-13T08:19:41.983Z,98249.00
2022-09-13T08:22:12.886Z,98252.00
2022-09-13T08:24:43.754Z,98272.00
2022-09-13T08:27:14.675Z,98241.00
2022-09-13T08:29:45.710Z,98246.00
2022-09-13T08:32:16.608Z,98250.00
2022-09-13T08:34:47.490Z,98251.00
2022-09-13T08:37:19.545Z,98252.00
2022-09-13T08:39:50.451Z,98243.00
2022-09-13T08:42:47.088Z,98249.00
2022-09-13T08:45:18.247Z,98247.00
2022-09-13T08:48:12.347Z,98243.00
2022-09-13T08:50:45.138Z,98238.00
2022-09-13T08:53:28.723Z,98236.00
2022-09-13T08:56:57.360Z,98241.00
2022-09-13T08:59:37.530Z,98253.00
2022-09-13T09:02:47.801Z,98250.00
2022-09-13T09:05:23.860Z,98249.00
2022-09-13T09:08:38.301Z,98237.00
2022-09-13T09:11:21.653Z,98229.00
2022-09-13T09:14:02.062Z,98229.00
2022-09-13T09:16:39.011Z,98228.00
2022-09-13T09:19:34.584Z,98218.00
2022-09-13T09:22:18.731Z,98230.00
2022-09-13T09:24:55.203Z,98228.00
2022-09-13T09:27:27.371Z,98249.00
2022-09-13T09:29:58.806Z,98237.00
2022-09-13T09:32:54.347Z,98241.00
2022-09-13T09:35:28.202Z,98235.00
2022-09-13T09:38:14.763Z,98233.00
2022-09-13T09:40:45.928Z,98224.00
2022-09-13T09:43:33.401Z,98220.00
2022-09-13T09:46:07.329Z,98227.00
2022-09-13T09:48:46.326Z,98221.00
2022-09-13T09:51:20.164Z,98233.00
2022-09-13T09:54:01.955Z,98226.00
2022-09-13T09:56:34.542Z,98230.00
2022-09-13T09:59:25.784Z,98246.00
2022-09-13T10:01:57.849Z,98254.00
2022-09-13T10:04:29.855Z,98243.00
2022-09-13T10:07:21.796Z,98246.00
2022-09-13T10:10:03.974Z,98243.00
2022-09-13T10:12:39.781Z,98255.00
2022-09-13T10:15:20.873Z,98244.00
2022-09-13T10:18:40.377Z,98244.00
2022-09-13T10:21:10.802Z,98251.00
2022-09-13T10:23:41.665Z,98256.00
2022-09-13T10:26:22.307Z,98246.00
2022-09-13T10:29:13.732Z,98261.00
2022-09-13T10:31:48.218Z,98238.00
2022-09-13T10:34:30.035Z,98221.00
2022-09-13T10:37:14.811Z,98222.00
2022-09-13T10:40:19.139Z,98212.00
2022-09-13T10:42:59.701Z,98216.00
2022-09-13T10:45:31.931Z,98210.00
2022-09-13T10:48:12.441Z,98237.00
2022-09-13T10:51:05.184Z,98208.00
2022-09-13T10:53:41.866Z,98204.00
2022-09-13T10:56:23.576Z,98200.00
2022-09-13T10:59:29.586Z,98207.00
2022-09-13T11:03:08.980Z,98205.00
2022-09-13T11:05:57.971Z,98203.00
2022-09-13T11:09:02.160Z,98206.00
2022-09-13T11:12:00.742Z,98192.00
2022-09-13T11:15:00.169Z,98191.00
2022-09-13T11:17:55.930Z,98192.00
2022-09-13T11:20:57.656Z,98194.00
2022-09-13T11:23:41.329Z,98201.00
2022-09-13T11:26:46.739Z,98203.00
2022-09-13T11:29:46.932Z,98204.00
2022-09-13T11:32:49.940Z,98199.00
2022-09-13T11:36:11.882Z,98201.00
2022-09-13T11:39:26.264Z,98187.00
2022-09-13T11:42:05.819Z,98189.00
2022-09-13T11:44:54.806Z,98206.00
2022-09-13T11:47:38.103Z,98218.00
2022-09-13T11:50:21.562Z,98214.00
2022-09-13T11:53:30.361Z,98209.00
2022-09-13T11:56:08.951Z,98206.00
2022-09-13T11:58:56.837Z,98198.00
2022-09-13T12:01:36.349Z,98201.00
2022-09-13T12:04:18.218Z,98196.00
2022-09-13T12:06:57.617Z,98194.00
2022-09-13T12:09:38.533Z,98185.00
2022-09-13T12:12:14.077Z,98198.00
2022-09-13T12:15:00.868Z,98183.00
2022-09-13T12:17:44.092Z,98176.00
2022-09-13T12:20:39.815Z,98184.00
2022-09-13T12:23:25.291Z,98182.00
2022-09-13T12:26:21.928Z,98171.00
2022-09-13T12:28:58.480Z,98167.00
2022-09-13T12:31:32.847Z,98165.00
2022-09-13T12:34:08.209Z,98173.00
2022-09-13T12:37:21.515Z,98167.00
2022-09-13T12:40:12.205Z,98168.00
2022-09-13T12:42:56.268Z,98162.00
2022-09-13T12:45:27.140Z,98150.00
2022-09-13T12:48:25.712Z,98138.00
2022-09-13T12:51:15.702Z,98130.00
2022-09-13T12:54:30.150Z,98124.00
2022-09-13T12:57:43.414Z,98121.00
2022-09-13T13:00:28.404Z,98126.00
2022-09-13T13:03:12.073Z,98117.00
2022-09-13T13:05:48.629Z,98105.00
2022-09-13T13:08:22.223Z,98099.00
2022-09-13T13:11:14.451Z,98128.00
2022-09-13T13:13:57.727Z,98099.00
2022-09-13T13:16:40.658Z,98093.00
2022-09-13T13:19:32.861Z,98089.00
2022-09-13T13:22:44.315Z,98084.00
2022-09-13T13:25:37.821Z,98087.00
2022-09-13T13:28:50.599Z,98085.00
2022-09-13T13:31:24.586Z,98078.00
2022-09-13T13:34:11.066Z,98090.00
2022-09-13T13:36:41.988Z,98090.00
2022-09-13T13:39:25.090Z,98080.00
2022-09-13T13:42:02.289Z,98081.00
2022-09-13T13:44:33.093Z,98075.00
2022-09-13T13:47:09.787Z,98073.00
2022-09-13T13:49:40.781Z,98070.00
2022-09-13T13:52:11.893Z,98066.00
2022-09-13T13:54:43.101Z,98060.00
2022-09-13T13:58:01.537Z,98063.00
2022-09-13T14:00:35.560Z,98059.00
2022-09-13T14:03:48.016Z,98071.00
2022-09-13T14:06:42.663Z,98083.00
2022-09-13T14:09:53.007Z,98061.00
2022-09-13T14:12:52.080Z,98057.00
2022-09-13T14:15:47.387Z,98065.00
2022-09-13T14:19:07.473Z,98057.00
2022-09-13T14:21:38.513Z,98056.00
2022-09-13T14:24:24.471Z,98067.00
2022-09-13T14:26:59.724Z,98060.00
2022-09-13T14:29:30.947Z,98054.00
2022-09-13T14:32:07.124Z,98047.00
2022-09-13T14:34:39.193Z,98051.00
2022-09-13T14:37:31.945Z,98036.00
2022-09-13T14:40:09.061Z,98036.00
2022-09-13T14:42:46.904Z,98035.00
2022-09-13T14:45:24.608Z,98033.00
2022-09-13T14:48:27.649Z,98037.00
2022-09-13T14:51:24.044Z,98034.00
2022-09-13T14:54:00.441Z,98033.00
2022-09-13T14:56:37.110Z,98032.00
2022-09-13T14:59:21.872Z,98030.00
2022-09-13T15:01:53.242Z,98023.00
2022-09-13T15:04:24.722Z,98014.00
2022-09-13T15:07:36.869Z,98021.00
2022-09-13T15:10:26.236Z,98018.00
2022-09-13T15:13:06.119Z,98001.00
2022-09-13T15:15:45.353Z,98002.00
2022-09-13T15:18:23.842Z,97998.00
2022-09-13T15:21:02.825Z,97986.00
2022-09-13T15:23:40.533Z,97984.00
2022-09-13T15:26:25.686Z,97997.00
2022-09-13T15:29:05.625Z,97985.00
2022-09-13T15:31:36.540Z,97977.00
2022-09-13T15:34:22.332Z,97995.00
2022-09-13T15:37:07.066Z,97972.00
2022-09-13T15:39:48.472Z,97971.00
2022-09-13T15:42:19.464Z,97970.00
2022-09-13T15:44:50.286Z,97967.00
2022-09-13T15:47:21.683Z,97976.00
2022-09-13T15:49:52.876Z,97965.00
2022-09-13T15:52:24.049Z,97960.00
2022-09-13T15:54:54.872Z,97965.00
2022-09-13T15:57:29.110Z,97954.00
2022-09-13T16:00:05.580Z,97949.00
2022-09-13T16:02:37.441Z,97950.00
2022-09-13T16:05:08.780Z,97940.00
2022-09-13T16:07:40.879Z,97945.00
2022-09-13T16:10:20.322Z,97942.00
2022-09-13T16:12:51.627Z,97932.00
2022-09-13T16:15:22.616Z,97926.00
2022-09-13T16:17:53.423Z,97929.00
2022-09-13T16:20:24.431Z,97927.00
2022-09-13T16:22:55.332Z,97922.00
2022-09-13T16:25:26.307Z,97922.00
2022-09-13T16:27:57.517Z,97914.00
2022-09-13T16:30:30.553Z,97914.00
2022-09-13T16:33:01.598Z,97922.00
2022-09-13T16:35:33.001Z,97919.00
2022-09-13T16:38:03.846Z,97921.00
2022-09-13T16:40:35.042Z,97921.00
2022-09-13T16:43:06.039Z,97917.00
2022-09-13T16:45:41.368Z,97919.00
2022-09-13T16:48:12.543Z,97919.00
2022-09-13T16:50:43.447Z,97923.00
2022-09-13T16:53:14.279Z,97921.00
2022-09-13T16:55:45.992Z,97908.00
2022-09-13T16:58:16.831Z,97911.00
2022-09-13T17:00:47.838Z,97903.00
2022-09-13T17:03:18.661Z,97907.00
2022-09-13T17:06:04.505Z,97895.00
2022-09-13T17:08:37.977Z,97903.00
2022-09-13T17:11:13.090Z,97899.00
2022-09-13T17:13:44.343Z,97894.00
2022-09-13T17:16:34.512Z,97897.00
2022-09-13T17:19:15.137Z,97899.00
2022-09-13T17:21:46.751Z,97915.00
2022-09-13T17:24:18.424Z,97902.00
2022-09-13T17:26:49.362Z,97908.00
2022-09-13T17:29:20.783Z,97910.00
2022-09-13T17:31:52.851Z,97901.00
2022-09-13T17:34:24.151Z,97901.00
2022-09-13T17:36:55.220Z,97904.00
2022-09-13T17:39:26.142Z,97902.00
2022-09-13T17:41:57.059Z,97902.00
2022-09-13T17:44:27.924Z,97891.00
2022-09-13T17:46:58.874Z,97905.00
2022-09-13T17:49:29.779Z,97901.00
2022-09-13T17:52:02.471Z,97901.00
2022-09-13T17:54:33.473Z,97897.00
2022-09-13T17:57:04.500Z,97902.00
2022-09-13T17:59:35.351Z,97897.00
2022-09-13T18:02:06.770Z,97896.00
2022-09-13T18:04:37.637Z,97892.00
2022-09-13T18:07:08.499Z,97890.00
2022-09-13T18:09:40.588Z,97898.00
2022-09-13T18:12:12.199Z,97891.00
2022-09-13T18:14:43.030Z,97902.00
2022-09-13T18:17:14.027Z,97910.00
2022-09-13T18:19:46.661Z,97911.00
2022-09-13T18:22:17.999Z,97915.00
2022-09-13T18:24:48.857Z,97906.00
2022-09-13T18:27:19.773Z,97902.00
2022-09-13T18:29:50.633Z,97903.00
2022-09-13T18:32:21.505Z,97912.00
2022-09-13T18:34:52.522Z,97906.00
2022-09-13T18:37:23.411Z,97909.00
2022-09-13T18:39:54.388Z,97911.00
2022-09-13T18:42:25.320Z,97906.00
2022-09-13T18:44:56.169Z,97909.00
2022-09-13T18:47:27.045Z,97913.00
2022-09-13T18:49:57.869Z,97912.00
2022-09-13T18:52:28.744Z,97919.00
2022-09-13T18:54:59.613Z,97915.00
2022-09-13T18:57:30.611Z,97917.00
2022-09-13T19:00:03.402Z,97923.00
2022-09-13T19:02:34.482Z,97919.00
2022-09-13T19:05:07.100Z,97933.00
2022-09-13T19:07:40.661Z,97934.00
2022-09-13T19:10:15.922Z,97935.00
2022-09-13T19:12:47.046Z,97938.00
2022-09-13T19:15:17.895Z,97938.00
2022-09-13T19:17:48.783Z,97941.00
2022-09-13T19:20:22.666Z,97939.00
2022-09-13T19:22:53.799Z,97950.00
2022-09-13T19:25:27.741Z,97953.00
2022-09-13T19:27:58.582Z,97960.00
2022-09-13T19:30:29.438Z,97958.00
2022-09-13T19:33:00.330Z,97956.00
2022-09-13T19:35:31.186Z,97960.00
2022-09-13T19:38:02.225Z,97952.00
2022-09-13T19:40:34.156Z,97956.00
2022-09-13T19:43:05.317Z,97958.00
2022-09-13T19:45:36.182Z,97963.00
2022-09-13T19:51:10.336Z,97967.00
2022-09-13T19:53:56.503Z,97973.00
2022-09-13T19:56:37.971Z,97971.00
2022-09-13T19:59:13.515Z,97950.00
2022-09-13T20:01:46.750Z,97960.00
2022-09-13T20:04:20.954Z,97961.00
2022-09-13T20:06:52.428Z,97968.00
2022-09-13T20:09:23.318Z,97956.00
2022-09-13T20:12:00.225Z,97961.00
2022-09-13T20:14:32.543Z,97952.00
2022-09-13T20:17:04.281Z,97948.00
2022-09-13T20:19:46.408Z,97943.00
2022-09-13T20:22:20.681Z,97938.00
2022-09-13T20:24:51.577Z,97938.00
2022-09-13T20:27:22.514Z,97939.00
2022-09-13T20:29:54.271Z,97934.00
2022-09-13T20:32:25.288Z,97938.00
2022-09-13T20:34:56.183Z,97944.00
2022-09-13T20:37:27.608Z,97938.00
2022-09-13T20:40:03.114Z,97939.00
2022-09-13T20:42:34.450Z,97925.00
2022-09-13T20:45:06.141Z,97932.00
2022-09-13T20:47:37.063Z,97926.00
2022-09-13T20:50:08.447Z,97924.00
2022-09-13T20:52:39.334Z,97929.00
2022-09-13T20:55:10.287Z,97947.00
2022-09-13T20:57:41.687Z,97927.00
2022-09-13T21:00:13.163Z,97911.00
2022-09-13T21:02:44.323Z,97917.00
2022-09-13T21:05:16.130Z,97910.00
2022-09-13T21:08:05.500Z,97908.00
2022-09-13T21:10:36.396Z,97911.00
2022-09-13T21:13:09.674Z,97915.00
2022-09-13T21:15:42.218Z,97906.00
2022-09-13T21:18:13.767Z,97906.00
2022-09-13T21:20:44.681Z,97908.00
2022-09-13T21:23:15.553Z,97915.00
2022-09-13T21:25:46.443Z,97917.00
2022-09-13T21:28:18.689Z,97914.00
2022-09-13T21:31:06.050Z,97905.00
2022-09-13T21:33:37.105Z,97897.00
2022-09-13T21:36:10.027Z,97907.00
2022-09-13T21:38:41.075Z,97896.00
2022-09-13T21:41:18.254Z,97898.00
2022-09-13T21:43:49.841Z,97891.00
2022-09-13T21:46:30.001Z,97893.00
2022-09-13T21:49:05.166Z,97891.00
2022-09-13T21:51:41.486Z,97890.00
2022-09-13T21:54:16.683Z,97893.00
2022-09-13T21:56:54.123Z,97901.00
2022-09-13T21:59:25.145Z,97893.00
2022-09-13T22:01:56.074Z,97902.00
2022-09-13T22:04:27.648Z,97884.00
2022-09-13T22:06:58.623Z,97873.00
2022-09-13T22:09:29.653Z,97873.00
2022-09-13T22:12:00.982Z,97861.00
2022-09-13T22:14:32.001Z,97861.00
2022-09-13T22:17:02.958Z,97877.00
2022-09-13T22:19:33.969Z,97890.00
2022-09-13T22:22:04.842Z,97870.00
2022-09-13T22:24:36.540Z,97879.00
2022-09-13T22:27:08.441Z,97873.00
2022-09-13T22:29:40.462Z,97875.00
2022-09-13T22:32:11.284Z,97868.00
2022-09-13T22:34:42.360Z,97864.00
2022-09-13T22:37:13.251Z,97841.00
2022-09-13T22:39:44.143Z,97837.00
2022-09-13T22:42:15.051Z,97837.00
2022-09-13T22:44:46.045Z,97838.00
2022-09-13T22:47:16.856Z,97840.00
2022-09-13T22:49:47.729Z,97833.00
2022-09-13T22:52:18.662Z,97841.00
2022-09-13T22:54:50.887Z,97863.00
2022-09-13T22:57:21.695Z,97844.00
2022-09-13T22:59:52.734Z,97847.00
2022-09-13T23:02:23.601Z,97852.00
2022-09-13T23:04:54.593Z,97857.00
2022-09-13T23:07:25.450Z,97852.00
2022-09-13T23:09:56.302Z,97860.00
2022-09-13T23:12:29.747Z,97861.00
2022-09-13T23:15:00.620Z,97837.00
2022-09-13T23:17:31.737Z,97835.00
2022-09-13T23:20:03.280Z,97829.00
2022-09-13T23:22:34.118Z,97835.00
2022-09-13T23:25:05.644Z,97826.00
2022-09-13T23:27:36.730Z,97827.00
2022-09-13T23:30:08.408Z,97817.00
2022-09-13T23:32:39.306Z,97815.00
2022-09-13T23:35:10.270Z,97807.00
2022-09-13T23:37:41.207Z,97812.00
2022-09-13T23:40:12.161Z,97801.00
2022-09-13T23:42:43.192Z,97809.00
2022-09-13T23:45:14.308Z,97809.00
2022-09-13T23:47:45.180Z,97805.00
2022-09-13T23:50:16.324Z,97797.00
2022-09-13T23:52:47.176Z,97794.00
2022-09-13T23:55:18.101Z,97791.00
2022-09-13T23:57:48.942Z,97783.00
